Nesbit, MS

7:17 PM CST on February 10, 2016 (GMT -0600)
Skyler Estates | | Change Station
CLOSE
Current Station
Personal Weather Station
Location: Southaven, MS
Elevation: 375 ft
Nearby Weather Stations

Elev 375 ft 34.91 °N, 89.98 °W | Updated 2 minutes ago

Clear
Clear
35.5 °F
Feels Like 36 °F
N
2.0
Wind Variable Wind from SSW
Gusts 4.0 mph

Today
High -- | Low -- °F
--% Chance of Precip.
Yesterday
High -- | Low -- °F
Precip. -- in
Pressure 30.12 in
Visibility 10.0 miles
Clouds Clear
Windchill 36 °F
Dew Point 19 °F
Humidity 52%
Rainfall 0.00 in
Snow Depth Not available.
6:51 AM 5:37 PM
Waxing Crescent, 8% visible
METAR KMEM 110054Z 13005KT 10SM CLR 04/M08 A3012 RMK AO2 SLP200 T00391083
Pressure 30.12 in
Visibility 10.0 miles
Clouds Clear
Windchill 36 °F
Dew Point 19 °F
Humidity 52%
Rainfall 0.00 in
Snow Depth Not available.
6:51 AM 5:37 PM
Waxing Crescent, 8% visible
METAR KMEM 110054Z 13005KT 10SM CLR 04/M08 A3012 RMK AO2 SLP200 T00391083

10-Day Weather Forecast

Almanac

Astronomy

Feb. 10, 2016 Rise Set
Actual Time
Civil Twilight
Nautical Twilight
Astronomical Twilight
Moon
Length of Visible Light
Length of Day
Tomorrow will be .
, % of the Moon is Illuminated

Today's Extremes

State Highs State Lows

Community

WunderPhotos

Upload Photos

1,891,961 photos uploaded!

WunderBlog® & News

Nearby

Air Quality

  Air Quality AQ Index Pollutant
Not available.

Snow Depth

Station Depth Elevation

Earthquake Activity

City Distance Mag. Time & Date
Minimum magnitude displayed is 2.5.

Coastal Water Temperatures

Place Temperature

Stations

Nearby Weather Stations

Station Location Temp. Windchill Dew Point Humidity Wind Precip. Elev Updated Type
                   

Watches & Warnings

There are currently no watches in effect.